Time;durP1;ratioP1;P1;durP2;ratioP2;P2;SDS_P1;SDS_P2;PMS_P1;PMS_P2;Temp;Humidity;BMP_temperature;BMP_pressure;BME280_temperature;BME280_humidity;BME280_pressure;Samples;Min_cycle;Max_cycle;Signal;HPM_P1;HPM_P2
2023/09/07 00:00:05;;;;;;;1.93;1.83;;;;;;;;;;5071481;28;20257;-81
2023/09/07 00:02:34;;;;;;;2.13;2.00;;;;;;;;;;5071977;28;20207;-82
2023/09/07 00:05:10;;;;;;;0.60;0.60;;;;;;;;;;5071532;28;20214;-82
2023/09/07 00:07:38;;;;;;;0.70;0.70;;;;;;;;;;5071477;28;20246;-83
2023/09/07 00:10:07;;;;;;;0.80;0.80;;;;;;;;;;5071478;28;20315;-84
2023/09/07 00:12:39;;;;;;;1.20;1.20;;;;;;;;;;5071934;28;20208;-84
2023/09/07 00:15:08;;;;;;;1.30;1.27;;;;;;;;;;5071274;28;20242;-84
2023/09/07 00:17:37;;;;;;;5.03;3.87;;;;;;;;;;5071549;28;20253;-84
2023/09/07 00:20:10;;;;;;;0.93;0.93;;;;;;;;;;5073872;28;20295;-83
2023/09/07 00:22:40;;;;;;;2.37;2.23;;;;;;;;;;5075415;28;20197;-84
2023/09/07 00:25:09;;;;;;;2.33;1.80;;;;;;;;;;5075217;28;20208;-84
2023/09/07 00:27:38;;;;;;;2.73;1.83;;;;;;;;;;5074896;28;20208;-84
2023/09/07 00:30:09;;;;;;;2.90;2.70;;;;;;;;;;5074834;28;20274;-84
2023/09/07 00:32:38;;;;;;;1.07;1.07;;;;;;;;;;5074997;28;20199;-83
2023/09/07 00:35:07;;;;;;;0.50;0.50;;;;;;;;;;5074362;28;20194;-84
2023/09/07 00:37:35;;;;;;;1.43;1.33;;;;;;;;;;5074883;28;20223;-83
2023/09/07 00:40:08;;;;;;;0.50;0.50;;;;;;;;;;5075359;28;20198;-81
2023/09/07 00:42:37;;;;;;;1.10;1.10;;;;;;;;;;5074637;28;20207;-81
2023/09/07 00:45:06;;;;;;;1.90;1.80;;;;;;;;;;5074710;28;20255;-81
2023/09/07 00:47:36;;;;;;;1.07;1.07;;;;;;;;;;5074722;28;20203;-81
2023/09/07 00:50:05;;;;;;;5.80;4.77;;;;;;;;;;5074560;28;20210;-81
2023/09/07 00:52:34;;;;;;;0.30;0.30;;;;;;;;;;5074289;28;20266;-81
2023/09/07 00:55:05;;;;;;;1.00;1.00;;;;;;;;;;5074938;28;20206;-81
2023/09/07 00:57:33;;;;;;;0.40;0.40;;;;;;;;;;5074750;28;20201;-81
2023/09/07 01:00:02;;;;;;;2.17;1.67;;;;;;;;;;5074574;28;20202;-82
2023/09/07 01:02:31;;;;;;;0.80;0.80;;;;;;;;;;5074461;28;20199;-81
2023/09/07 01:04:59;;;;;;;1.97;1.23;;;;;;;;;;5074639;28;20202;-81
2023/09/07 01:07:34;;;;;;;0.83;0.83;;;;;;;;;;5074744;28;20236;-81
2023/09/07 01:10:03;;;;;;;0.30;0.30;;;;;;;;;;5073932;28;20307;-81
2023/09/07 01:12:33;;;;;;;0.50;0.50;;;;;;;;;;5074123;28;20272;-81
2023/09/07 01:15:02;;;;;;;1.30;1.27;;;;;;;;;;5074124;28;20254;-81
2023/09/07 01:17:31;;;;;;;0.63;0.63;;;;;;;;;;5073619;28;20201;-81
2023/09/07 01:20:05;;;;;;;0.33;0.33;;;;;;;;;;5073958;28;20246;-81
2023/09/07 01:22:35;;;;;;;1.53;1.53;;;;;;;;;;5074114;28;20211;-81
2023/09/07 01:25:04;;;;;;;0.73;0.73;;;;;;;;;;5074326;28;20206;-81
2023/09/07 01:27:33;;;;;;;2.57;2.37;;;;;;;;;;5073375;28;20194;-81
2023/09/07 01:30:02;;;;;;;0.73;0.73;;;;;;;;;;5073612;28;20221;-81
2023/09/07 01:32:31;;;;;;;1.27;1.17;;;;;;;;;;5074206;28;20200;-81
2023/09/07 01:34:59;;;;;;;0.67;0.67;;;;;;;;;;5073784;28;20200;-81
2023/09/07 01:37:28;;;;;;;0.67;0.67;;;;;;;;;;5073256;28;20225;-81
2023/09/07 01:39:59;;;;;;;0.40;0.40;;;;;;;;;;5073902;28;20267;-81
2023/09/07 01:42:27;;;;;;;3.43;2.67;;;;;;;;;;5074098;28;20201;-81
2023/09/07 01:44:56;;;;;;;12.63;8.37;;;;;;;;;;5073201;28;20197;-81
2023/09/07 01:47:24;;;;;;;5.53;4.47;;;;;;;;;;5072926;28;20208;-81
2023/09/07 01:49:53;;;;;;;2.23;2.13;;;;;;;;;;5073542;28;20214;-81
2023/09/07 01:52:21;;;;;;;6.53;5.90;;;;;;;;;;5073258;28;20270;-81
2023/09/07 01:54:50;;;;;;;6.43;4.27;;;;;;;;;;5073104;28;20205;-82
2023/09/07 01:57:20;;;;;;;4.73;4.17;;;;;;;;;;5073681;28;20197;-81
2023/09/07 01:59:49;;;;;;;4.47;3.93;;;;;;;;;;5073648;28;20201;-81
2023/09/07 02:02:17;;;;;;;1.10;1.10;;;;;;;;;;5073103;28;20215;-81
2023/09/07 02:04:46;;;;;;;7.33;4.47;;;;;;;;;;5073195;28;20201;-81
2023/09/07 02:07:15;;;;;;;3.63;2.53;;;;;;;;;;5072914;28;20198;-81
2023/09/07 02:09:43;;;;;;;5.90;4.77;;;;;;;;;;5072973;28;20234;-81
2023/09/07 02:12:12;;;;;;;8.40;7.13;;;;;;;;;;5072783;28;20204;-81
2023/09/07 02:14:41;;;;;;;4.33;3.93;;;;;;;;;;5072632;28;20281;-81
2023/09/07 02:17:14;;;;;;;2.73;2.53;;;;;;;;;;5072549;28;20191;-81
2023/09/07 02:19:42;;;;;;;5.33;4.80;;;;;;;;;;5073096;28;20210;-81
2023/09/07 02:22:11;;;;;;;11.60;9.00;;;;;;;;;;5072556;28;20214;-83
2023/09/07 02:24:39;;;;;;;6.37;5.70;;;;;;;;;;5072953;28;20202;-83
2023/09/07 02:27:08;;;;;;;3.83;3.50;;;;;;;;;;5073429;28;20496;-84
2023/09/07 02:29:36;;;;;;;6.50;3.13;;;;;;;;;;5072575;28;20297;-83
2023/09/07 02:32:07;;;;;;;2.87;2.67;;;;;;;;;;5072499;28;20193;-84
2023/09/07 02:34:36;;;;;;;0.70;0.70;;;;;;;;;;5072963;28;20200;-83
2023/09/07 02:37:04;;;;;;;4.90;4.50;;;;;;;;;;5072936;28;20227;-83
2023/09/07 02:39:33;;;;;;;4.80;2.40;;;;;;;;;;5072094;28;20193;-83
2023/09/07 02:42:02;;;;;;;2.33;2.13;;;;;;;;;;5072150;28;20199;-83
2023/09/07 02:44:31;;;;;;;3.10;1.83;;;;;;;;;;5072644;28;20195;-84
2023/09/07 02:46:59;;;;;;;2.00;1.83;;;;;;;;;;5072152;28;20199;-84
2023/09/07 02:49:29;;;;;;;2.77;2.57;;;;;;;;;;5072273;28;20204;-83
2023/09/07 02:51:57;;;;;;;3.10;2.90;;;;;;;;;;5072506;28;20212;-83
2023/09/07 02:54:26;;;;;;;1.77;1.67;;;;;;;;;;5072932;28;20205;-83
2023/09/07 02:56:54;;;;;;;4.40;3.30;;;;;;;;;;5072137;28;20285;-84
2023/09/07 02:59:22;;;;;;;0.93;0.93;;;;;;;;;;5072536;28;20204;-84
2023/09/07 03:01:51;;;;;;;1.07;1.03;;;;;;;;;;5072378;28;20204;-84
2023/09/07 03:04:19;;;;;;;1.70;1.57;;;;;;;;;;5072167;28;20207;-84
2023/09/07 03:06:49;;;;;;;3.40;2.20;;;;;;;;;;5071824;28;20255;-84
2023/09/07 03:09:18;;;;;;;1.37;1.37;;;;;;;;;;5072568;28;20201;-84
2023/09/07 03:11:46;;;;;;;0.40;0.40;;;;;;;;;;5072042;28;20222;-83
2023/09/07 03:14:15;;;;;;;0.57;0.57;;;;;;;;;;5072335;28;20240;-83
2023/09/07 03:16:43;;;;;;;1.03;1.03;;;;;;;;;;5072355;28;20203;-81
2023/09/07 03:19:12;;;;;;;0.80;0.80;;;;;;;;;;5072585;28;20198;-84
2023/09/07 03:21:40;;;;;;;0.80;0.80;;;;;;;;;;5071855;28;20208;-84
2023/09/07 03:24:10;;;;;;;0.93;0.77;;;;;;;;;;5071863;28;20204;-84
2023/09/07 03:26:39;;;;;;;2.00;1.90;;;;;;;;;;5072282;28;20198;-83
2023/09/07 03:29:08;;;;;;;2.37;2.07;;;;;;;;;;5072745;28;20206;-83
2023/09/07 03:31:36;;;;;;;1.77;1.67;;;;;;;;;;5072211;28;20228;-84
2023/09/07 03:34:05;;;;;;;3.13;2.83;;;;;;;;;;5072104;28;20205;-84
2023/09/07 03:36:34;;;;;;;4.17;1.67;;;;;;;;;;5072096;28;20256;-84
2023/09/07 03:39:02;;;;;;;2.63;2.43;;;;;;;;;;5072154;28;20199;-84
2023/09/07 03:41:32;;;;;;;0.97;0.97;;;;;;;;;;5071929;28;20197;-84
2023/09/07 03:44:00;;;;;;;1.20;1.20;;;;;;;;;;5072166;28;20245;-83
2023/09/07 03:46:29;;;;;;;0.30;0.30;;;;;;;;;;5071904;28;20199;-84
2023/09/07 03:48:58;;;;;;;0.73;0.73;;;;;;;;;;5072068;28;20226;-84
2023/09/07 03:51:26;;;;;;;0.40;0.40;;;;;;;;;;5071286;28;20212;-84
2023/09/07 03:53:55;;;;;;;0.60;0.60;;;;;;;;;;5072232;28;20225;-84
2023/09/07 03:56:23;;;;;;;0.87;0.87;;;;;;;;;;5076102;28;20205;-83
2023/09/07 03:58:53;;;;;;;0.30;0.30;;;;;;;;;;5075678;28;20204;-84
2023/09/07 04:01:21;;;;;;;0.20;0.20;;;;;;;;;;5075536;28;20195;-83
2023/09/07 04:03:50;;;;;;;0.40;0.40;;;;;;;;;;5075641;28;20215;-84
2023/09/07 04:06:19;;;;;;;0.20;0.20;;;;;;;;;;5075672;28;20194;-84
2023/09/07 04:08:48;;;;;;;0.20;0.20;;;;;;;;;;5075467;28;20454;-84
2023/09/07 04:11:16;;;;;;;0.20;0.20;;;;;;;;;;5075193;28;20220;-83
2023/09/07 04:13:45;;;;;;;0.20;0.20;;;;;;;;;;5075138;28;20263;-84
2023/09/07 04:16:15;;;;;;;0.20;0.20;;;;;;;;;;5075455;28;20213;-83
2023/09/07 04:18:45;;;;;;;0.30;0.30;;;;;;;;;;5074982;28;20334;-83
2023/09/07 04:21:14;;;;;;;0.27;0.27;;;;;;;;;;5075837;28;20299;-84
2023/09/07 04:23:42;;;;;;;0.20;0.20;;;;;;;;;;5075503;28;20217;-84
2023/09/07 04:26:11;;;;;;;0.53;0.53;;;;;;;;;;5074628;28;20210;-84
2023/09/07 04:28:40;;;;;;;0.23;0.23;;;;;;;;;;5074698;28;20195;-83
2023/09/07 04:31:09;;;;;;;0.30;0.30;;;;;;;;;;5075119;28;20218;-81
2023/09/07 04:33:39;;;;;;;0.30;0.30;;;;;;;;;;5075252;28;20299;-81
2023/09/07 04:36:09;;;;;;;0.77;0.77;;;;;;;;;;5074781;28;20299;-83
2023/09/07 04:38:37;;;;;;;1.23;0.93;;;;;;;;;;5074832;28;20203;-81
2023/09/07 04:41:09;;;;;;;0.50;0.50;;;;;;;;;;5074960;28;20280;-81
2023/09/07 04:43:40;;;;;;;0.70;0.70;;;;;;;;;;5074978;28;20211;-83
2023/09/07 04:46:08;;;;;;;0.23;0.23;;;;;;;;;;5074634;28;20248;-84
2023/09/07 04:48:38;;;;;;;1.33;1.33;;;;;;;;;;5074938;28;20211;-83
2023/09/07 04:51:07;;;;;;;21.43;2.00;;;;;;;;;;5074712;28;20216;-84
2023/09/07 04:53:36;;;;;;;2.23;1.33;;;;;;;;;;5074397;28;20206;-83
2023/09/07 04:56:05;;;;;;;0.53;0.53;;;;;;;;;;5074467;28;20216;-84
2023/09/07 04:58:34;;;;;;;0.87;0.60;;;;;;;;;;5074975;28;20455;-81
2023/09/07 05:01:05;;;;;;;0.50;0.50;;;;;;;;;;5074318;28;20198;-81
2023/09/07 05:03:34;;;;;;;0.93;0.93;;;;;;;;;;5074211;28;20203;-83
2023/09/07 05:06:04;;;;;;;1.13;1.13;;;;;;;;;;5074230;28;20210;-81
2023/09/07 05:08:32;;;;;;;0.93;0.90;;;;;;;;;;5074448;28;20207;-81
2023/09/07 05:11:02;;;;;;;0.30;0.30;;;;;;;;;;5074159;28;20243;-81
2023/09/07 05:13:31;;;;;;;0.20;0.20;;;;;;;;;;5074070;28;20258;-84
2023/09/07 05:16:00;;;;;;;0.20;0.20;;;;;;;;;;5074205;28;20199;-84
2023/09/07 05:18:30;;;;;;;0.40;0.40;;;;;;;;;;5074016;28;20232;-84
2023/09/07 05:20:59;;;;;;;1.57;1.47;;;;;;;;;;5073807;28;20215;-84
2023/09/07 05:23:29;;;;;;;0.47;0.47;;;;;;;;;;5073967;28;20204;-84
2023/09/07 05:25:57;;;;;;;1.00;1.00;;;;;;;;;;5074216;28;20202;-81
2023/09/07 05:28:26;;;;;;;0.63;0.63;;;;;;;;;;5074432;28;20207;-81
2023/09/07 05:30:55;;;;;;;2.10;1.23;;;;;;;;;;5073581;28;20228;-84
2023/09/07 05:33:23;;;;;;;0.57;0.57;;;;;;;;;;5074008;28;20208;-81
2023/09/07 05:35:52;;;;;;;0.73;0.73;;;;;;;;;;5073789;28;20213;-82
2023/09/07 05:38:21;;;;;;;2.27;2.17;;;;;;;;;;5073515;28;20200;-82
2023/09/07 05:40:54;;;;;;;0.77;0.77;;;;;;;;;;5073880;28;20294;-82
2023/09/07 05:43:22;;;;;;;0.30;0.30;;;;;;;;;;5073827;28;20238;-84
2023/09/07 05:45:51;;;;;;;0.30;0.30;;;;;;;;;;5073386;28;20294;-84
2023/09/07 05:48:20;;;;;;;0.47;0.47;;;;;;;;;;5073212;28;20212;-84
2023/09/07 05:50:48;;;;;;;0.40;0.40;;;;;;;;;;5073699;28;20213;-84
2023/09/07 05:53:17;;;;;;;0.33;0.33;;;;;;;;;;5073450;28;20217;-83
2023/09/07 05:55:47;;;;;;;2.23;2.13;;;;;;;;;;5073780;28;20201;-84
2023/09/07 05:58:17;;;;;;;0.20;0.20;;;;;;;;;;5073672;28;20209;-84
2023/09/07 06:00:52;;;;;;;0.93;0.93;;;;;;;;;;5073755;28;20198;-84
2023/09/07 06:03:23;;;;;;;0.73;0.73;;;;;;;;;;5073311;28;20194;-84
2023/09/07 06:05:52;;;;;;;1.00;1.00;;;;;;;;;;5073230;28;20235;-84
2023/09/07 06:08:21;;;;;;;2.73;2.10;;;;;;;;;;5073539;28;20200;-84
2023/09/07 06:10:49;;;;;;;4.07;3.50;;;;;;;;;;5073593;28;20198;-84
2023/09/07 06:13:19;;;;;;;1.50;1.40;;;;;;;;;;5072783;28;20422;-84
2023/09/07 06:15:48;;;;;;;2.10;1.80;;;;;;;;;;5072720;28;20326;-84
2023/09/07 06:18:16;;;;;;;0.30;0.30;;;;;;;;;;5072351;28;20212;-83
2023/09/07 06:20:45;;;;;;;0.77;0.77;;;;;;;;;;5073098;28;20204;-84
2023/09/07 06:23:14;;;;;;;0.70;0.70;;;;;;;;;;5072645;28;20201;-84
2023/09/07 06:25:42;;;;;;;0.43;0.43;;;;;;;;;;5073230;28;20204;-84
2023/09/07 06:28:11;;;;;;;2.30;1.77;;;;;;;;;;5073091;28;20199;-83
2023/09/07 06:30:41;;;;;;;4.97;4.57;;;;;;;;;;5073245;28;20197;-84
2023/09/07 06:33:09;;;;;;;3.83;2.73;;;;;;;;;;5072394;28;20268;-84
2023/09/07 06:35:38;;;;;;;2.33;2.07;;;;;;;;;;5073276;28;20233;-84
2023/09/07 06:38:07;;;;;;;2.10;2.00;;;;;;;;;;5073123;28;20210;-84
2023/09/07 06:40:35;;;;;;;1.60;1.50;;;;;;;;;;5074100;28;20206;-83
2023/09/07 06:43:05;;;;;;;2.50;1.80;;;;;;;;;;5073611;28;20213;-83
2023/09/07 06:45:35;;;;;;;3.33;3.03;;;;;;;;;;5073434;28;20202;-84
2023/09/07 06:48:05;;;;;;;0.83;0.83;;;;;;;;;;5073706;28;20214;-83
2023/09/07 06:50:34;;;;;;;1.40;1.37;;;;;;;;;;5072579;28;20260;-83
2023/09/07 06:53:03;;;;;;;1.93;1.73;;;;;;;;;;5073027;28;20265;-84
2023/09/07 06:55:32;;;;;;;7.23;5.10;;;;;;;;;;5072912;28;20266;-81
2023/09/07 06:58:01;;;;;;;3.20;2.97;;;;;;;;;;5072347;28;20257;-81
2023/09/07 07:00:29;;;;;;;4.97;4.13;;;;;;;;;;5072472;28;20204;-81
2023/09/07 07:02:58;;;;;;;2.37;2.17;;;;;;;;;;5072622;28;20206;-80
2023/09/07 07:05:29;;;;;;;3.43;3.10;;;;;;;;;;5072002;28;20192;-84
2023/09/07 07:07:58;;;;;;;3.40;2.83;;;;;;;;;;5071763;28;20197;-82
2023/09/07 07:10:26;;;;;;;5.20;4.70;;;;;;;;;;5072269;28;20275;-80
2023/09/07 07:12:55;;;;;;;2.60;2.33;;;;;;;;;;5072187;28;20267;-80
2023/09/07 07:15:23;;;;;;;2.97;2.70;;;;;;;;;;5072469;28;20238;-82
2023/09/07 07:17:52;;;;;;;4.40;3.90;;;;;;;;;;5071416;28;20215;-81
2023/09/07 07:20:20;;;;;;;2.43;2.27;;;;;;;;;;5072542;28;20203;-81
2023/09/07 07:22:50;;;;;;;3.93;3.53;;;;;;;;;;5072211;28;20245;-81
2023/09/07 07:25:19;;;;;;;2.67;2.10;;;;;;;;;;5072413;28;20194;-81
2023/09/07 07:27:47;;;;;;;1.73;1.63;;;;;;;;;;5071861;28;20203;-82
2023/09/07 07:30:16;;;;;;;2.17;2.00;;;;;;;;;;5076527;28;20214;-80
2023/09/07 07:32:48;;;;;;;0.97;0.97;;;;;;;;;;5076489;28;20231;-81
2023/09/07 07:35:16;;;;;;;4.77;4.27;;;;;;;;;;5075826;28;20258;-81
2023/09/07 07:37:48;;;;;;;4.53;3.43;;;;;;;;;;5075852;28;20223;-80
2023/09/07 07:40:18;;;;;;;4.27;3.70;;;;;;;;;;5076542;28;20204;-82
2023/09/07 07:42:47;;;;;;;0.83;0.83;;;;;;;;;;5076671;28;20208;-81
2023/09/07 07:45:19;;;;;;;5.03;3.97;;;;;;;;;;5075728;28;20229;-81
2023/09/07 07:47:50;;;;;;;1.10;1.10;;;;;;;;;;5076083;28;20208;-81
2023/09/07 07:50:19;;;;;;;1.03;1.00;;;;;;;;;;5076008;28;20209;-81
2023/09/07 07:52:47;;;;;;;4.50;3.43;;;;;;;;;;5075602;28;20217;-82
2023/09/07 07:55:18;;;;;;;2.60;1.83;;;;;;;;;;5075752;28;20295;-81
2023/09/07 07:57:46;;;;;;;5.43;2.40;;;;;;;;;;5075350;28;20205;-81
2023/09/07 08:00:15;;;;;;;3.23;2.93;;;;;;;;;;5075121;28;20398;-81
2023/09/07 08:02:44;;;;;;;2.97;2.73;;;;;;;;;;5074987;28;20208;-82
2023/09/07 08:05:13;;;;;;;1.23;1.13;;;;;;;;;;5075609;28;20561;-81
2023/09/07 08:07:41;;;;;;;2.77;2.57;;;;;;;;;;5075291;28;20202;-81
2023/09/07 08:10:10;;;;;;;3.97;3.30;;;;;;;;;;5074977;28;20292;-81
2023/09/07 08:12:40;;;;;;;9.40;3.33;;;;;;;;;;5075314;28;20241;-81
2023/09/07 08:15:12;;;;;;;4.27;2.67;;;;;;;;;;5074433;28;20231;-82
2023/09/07 08:17:40;;;;;;;1.07;1.07;;;;;;;;;;5065424;28;20204;-82
2023/09/07 08:20:11;;;;;;;3.93;3.33;;;;;;;;;;5062286;28;20207;-83
2023/09/07 08:22:41;;;;;;;3.07;2.20;;;;;;;;;;5075112;28;20214;-85
2023/09/07 08:25:14;;;;;;;3.93;2.33;;;;;;;;;;5068259;28;20202;-83
2023/09/07 08:27:47;;;;;;;2.57;1.43;;;;;;;;;;5074472;28;20213;-83
2023/09/07 08:30:22;;;;;;;2.20;2.00;;;;;;;;;;5068868;28;20208;-82
2023/09/07 08:32:55;;;;;;;3.00;1.50;;;;;;;;;;5056341;28;20240;-83
2023/09/07 08:35:26;;;;;;;2.63;1.90;;;;;;;;;;5070854;28;20213;-83
2023/09/07 08:38:13;;;;;;;1.80;1.70;;;;;;;;;;5071803;28;20313;-83
2023/09/07 08:40:46;;;;;;;0.87;0.83;;;;;;;;;;5075587;28;20212;-84
2023/09/07 08:43:18;;;;;;;1.40;1.30;;;;;;;;;;5070425;28;20254;-84
2023/09/07 08:45:49;;;;;;;0.83;0.80;;;;;;;;;;5072460;28;20225;-83
2023/09/07 08:48:18;;;;;;;3.13;2.47;;;;;;;;;;5073990;28;20220;-84
2023/09/07 08:50:50;;;;;;;3.87;3.47;;;;;;;;;;5075234;28;20208;-83
2023/09/07 08:53:20;;;;;;;0.70;0.67;;;;;;;;;;5075522;28;20214;-82
2023/09/07 08:55:49;;;;;;;8.13;1.70;;;;;;;;;;5074831;28;20201;-83
2023/09/07 08:58:20;;;;;;;4.03;2.70;;;;;;;;;;5075216;28;20208;-83
2023/09/07 09:00:49;;;;;;;1.00;0.97;;;;;;;;;;5076099;28;20209;-84
2023/09/07 09:03:18;;;;;;;1.00;1.00;;;;;;;;;;5086455;28;20193;-85
2023/09/07 09:05:48;;;;;;;0.47;0.43;;;;;;;;;;5071729;28;20228;-84
2023/09/07 09:08:20;;;;;;;1.90;1.80;;;;;;;;;;5072598;28;20216;-84
2023/09/07 09:10:48;;;;;;;4.13;3.20;;;;;;;;;;5073166;28;20217;-85
2023/09/07 09:13:28;;;;;;;3.40;3.10;;;;;;;;;;5070418;28;20213;-84
2023/09/07 09:15:57;;;;;;;3.17;2.57;;;;;;;;;;5058700;28;20213;-85
2023/09/07 09:18:27;;;;;;;1.37;1.27;;;;;;;;;;5062399;28;20206;-83
2023/09/07 09:20:58;;;;;;;2.33;1.53;;;;;;;;;;5061805;28;20239;-84
2023/09/07 09:23:32;;;;;;;2.87;2.13;;;;;;;;;;5065375;28;20193;-84
2023/09/07 09:26:05;;;;;;;1.40;1.30;;;;;;;;;;5066297;28;20199;-84
2023/09/07 09:28:35;;;;;;;2.63;2.33;;;;;;;;;;5063608;28;20225;-85
2023/09/07 09:31:04;;;;;;;3.37;2.37;;;;;;;;;;5063503;28;20232;-84
2023/09/07 09:33:33;;;;;;;1.90;1.80;;;;;;;;;;5066067;28;20237;-84
2023/09/07 09:36:02;;;;;;;2.73;2.17;;;;;;;;;;5064639;28;20209;-85
2023/09/07 09:38:32;;;;;;;4.77;2.87;;;;;;;;;;5065144;28;20208;-87
2023/09/07 09:41:03;;;;;;;1.60;1.50;;;;;;;;;;5067479;28;20194;-88
2023/09/07 09:43:31;;;;;;;1.30;1.30;;;;;;;;;;5066346;28;20217;-87
2023/09/07 09:46:03;;;;;;;2.13;2.03;;;;;;;;;;5066096;28;20294;-89
2023/09/07 09:48:35;;;;;;;1.17;1.07;;;;;;;;;;5062949;28;20208;-90
2023/09/07 09:51:05;;;;;;;3.77;2.33;;;;;;;;;;5064373;28;20210;-88
2023/09/07 09:53:34;;;;;;;1.67;1.27;;;;;;;;;;5064995;28;20231;-88
2023/09/07 09:56:03;;;;;;;0.83;0.83;;;;;;;;;;5062591;28;20213;-86
2023/09/07 09:58:33;;;;;;;2.33;2.10;;;;;;;;;;5050512;28;20304;-87
2023/09/07 10:01:05;;;;;;;1.70;1.60;;;;;;;;;;5052332;28;20216;-87
2023/09/07 10:03:35;;;;;;;1.93;1.50;;;;;;;;;;5049795;28;20229;-86
2023/09/07 10:06:10;;;;;;;1.67;1.50;;;;;;;;;;5057591;28;20255;-87
2023/09/07 10:08:38;;;;;;;2.00;1.53;;;;;;;;;;5053855;28;20207;-88
2023/09/07 10:11:09;;;;;;;3.37;1.10;;;;;;;;;;5055174;28;20215;-87
2023/09/07 10:13:37;;;;;;;2.70;2.50;;;;;;;;;;5050041;28;20211;-88
2023/09/07 10:16:08;;;;;;;1.63;1.53;;;;;;;;;;5051230;28;20294;-86
2023/09/07 10:18:38;;;;;;;2.93;1.70;;;;;;;;;;5048455;28;20303;-88
2023/09/07 10:21:07;;;;;;;3.43;2.97;;;;;;;;;;5049320;28;20284;-86
2023/09/07 10:23:38;;;;;;;2.70;2.47;;;;;;;;;;5055463;28;20199;-87
2023/09/07 10:26:07;;;;;;;0.20;0.20;;;;;;;;;;5052797;28;20225;-87
2023/09/07 10:28:36;;;;;;;1.73;1.20;;;;;;;;;;5056236;28;20209;-87
2023/09/07 10:31:05;;;;;;;2.67;2.00;;;;;;;;;;5048032;28;20211;-86
2023/09/07 10:33:36;;;;;;;3.20;3.00;;;;;;;;;;5070190;28;20203;-85
2023/09/07 10:36:07;;;;;;;1.70;1.60;;;;;;;;;;5063419;28;20221;-84
2023/09/07 10:38:36;;;;;;;1.87;1.77;;;;;;;;;;5065364;28;20215;-84
2023/09/07 10:41:05;;;;;;;1.43;1.33;;;;;;;;;;5072054;28;20210;-83
2023/09/07 10:43:47;;;;;;;5.77;2.37;;;;;;;;;;5071980;28;20299;-84
2023/09/07 10:46:16;;;;;;;1.87;1.07;;;;;;;;;;5071468;28;20206;-84
2023/09/07 10:48:46;;;;;;;3.20;2.90;;;;;;;;;;5072252;28;20224;-84
2023/09/07 10:51:15;;;;;;;1.80;1.70;;;;;;;;;;5072716;28;20208;-83
2023/09/07 10:53:44;;;;;;;1.00;1.00;;;;;;;;;;5071421;28;20219;-84
2023/09/07 10:56:13;;;;;;;4.10;2.27;;;;;;;;;;5072746;28;20209;-84
2023/09/07 10:58:42;;;;;;;0.67;0.67;;;;;;;;;;5072102;28;20204;-83
2023/09/07 11:01:11;;;;;;;1.07;1.07;;;;;;;;;;5071472;28;20204;-83
2023/09/07 11:03:44;;;;;;;2.40;2.20;;;;;;;;;;5071341;28;20216;-83
2023/09/07 11:06:19;;;;;;;1.97;1.77;;;;;;;;;;5070451;28;20201;-83
2023/09/07 11:08:46;;;;;;;6.57;2.23;;;;;;;;;;5071124;28;20250;-83
2023/09/07 11:11:15;;;;;;;3.90;1.93;;;;;;;;;;5071525;28;20251;-82
2023/09/07 11:13:45;;;;;;;1.43;1.33;;;;;;;;;;5071585;28;20251;-82
2023/09/07 11:16:13;;;;;;;3.13;2.73;;;;;;;;;;5071914;28;20220;-82
2023/09/07 11:18:42;;;;;;;0.93;0.93;;;;;;;;;;5071655;28;20205;-83
2023/09/07 11:21:11;;;;;;;4.20;3.73;;;;;;;;;;5071363;28;20208;-83
2023/09/07 11:23:43;;;;;;;3.37;3.03;;;;;;;;;;5072136;28;20307;-82
2023/09/07 11:26:12;;;;;;;20.17;2.70;;;;;;;;;;5072032;28;20216;-82
2023/09/07 11:28:41;;;;;;;2.73;2.20;;;;;;;;;;5071449;28;20212;-82
2023/09/07 11:31:10;;;;;;;1.63;1.53;;;;;;;;;;5071386;28;20299;-82
2023/09/07 11:33:38;;;;;;;1.87;1.70;;;;;;;;;;5071612;28;20205;-83
2023/09/07 11:36:07;;;;;;;4.07;2.63;;;;;;;;;;5071726;28;20221;-82
2023/09/07 11:38:38;;;;;;;2.43;2.33;;;;;;;;;;5071014;28;20363;-82
2023/09/07 11:41:08;;;;;;;1.57;1.47;;;;;;;;;;5070791;28;20321;-83
2023/09/07 11:43:39;;;;;;;10.53;3.43;;;;;;;;;;5071547;28;20269;-83
2023/09/07 11:46:08;;;;;;;2.83;2.53;;;;;;;;;;5071633;28;20300;-83
2023/09/07 11:48:40;;;;;;;1.13;1.13;;;;;;;;;;5070705;28;20204;-82
2023/09/07 11:51:08;;;;;;;1.20;1.20;;;;;;;;;;5071804;28;20205;-81
2023/09/07 11:53:37;;;;;;;3.10;2.77;;;;;;;;;;5071253;28;20204;-83
2023/09/07 11:56:06;;;;;;;5.37;3.20;;;;;;;;;;5070727;28;20305;-82
2023/09/07 11:58:36;;;;;;;2.10;1.93;;;;;;;;;;5070934;28;20357;-82
2023/09/07 12:01:06;;;;;;;4.50;3.63;;;;;;;;;;5071092;28;20241;-82
2023/09/07 12:03:35;;;;;;;7.03;4.00;;;;;;;;;;5071084;28;20257;-82
2023/09/07 12:06:04;;;;;;;14.83;3.27;;;;;;;;;;5070396;28;20200;-82
2023/09/07 12:08:32;;;;;;;16.23;5.57;;;;;;;;;;5071291;28;20198;-83
2023/09/07 12:11:01;;;;;;;4.80;3.53;;;;;;;;;;5071329;28;20204;-83
2023/09/07 12:13:29;;;;;;;2.23;1.80;;;;;;;;;;5071125;28;20206;-83
2023/09/07 12:16:02;;;;;;;3.73;3.30;;;;;;;;;;5072190;28;20214;-83
2023/09/07 12:18:31;;;;;;;4.57;4.03;;;;;;;;;;5074609;28;20253;-83
2023/09/07 12:20:59;;;;;;;5.57;0.40;;;;;;;;;;5074889;28;20201;-83
2023/09/07 12:23:28;;;;;;;2.90;2.50;;;;;;;;;;5074255;28;20237;-83
2023/09/07 12:25:57;;;;;;;12.33;6.57;;;;;;;;;;5074405;28;20251;-82
2023/09/07 12:28:26;;;;;;;3.27;2.63;;;;;;;;;;5074712;28;20198;-83
2023/09/07 12:30:55;;;;;;;1.93;1.77;;;;;;;;;;5073829;28;20209;-83
2023/09/07 12:33:25;;;;;;;13.40;3.53;;;;;;;;;;5074261;28;20201;-82
2023/09/07 12:35:53;;;;;;;2.40;2.20;;;;;;;;;;5073974;28;20311;-83
2023/09/07 12:38:27;;;;;;;5.60;3.70;;;;;;;;;;5074338;28;20269;-82
2023/09/07 12:40:58;;;;;;;16.43;4.53;;;;;;;;;;5074154;28;20204;-82
2023/09/07 12:43:27;;;;;;;5.03;2.23;;;;;;;;;;5074427;28;20206;-82
2023/09/07 12:45:55;;;;;;;4.70;2.70;;;;;;;;;;5073752;28;20186;-82
2023/09/07 12:48:25;;;;;;;5.70;5.17;;;;;;;;;;5074334;28;20197;-82
2023/09/07 12:50:54;;;;;;;3.40;3.10;;;;;;;;;;5073473;28;20205;-83
2023/09/07 12:53:25;;;;;;;3.70;2.67;;;;;;;;;;5074205;28;20197;-83
2023/09/07 12:56:07;;;;;;;3.57;2.70;;;;;;;;;;5071018;28;20229;-84
2023/09/07 12:58:37;;;;;;;1.50;1.50;;;;;;;;;;5073638;28;20205;-83
2023/09/07 13:01:08;;;;;;;2.80;2.57;;;;;;;;;;5073912;28;20243;-83
2023/09/07 13:03:38;;;;;;;4.37;2.83;;;;;;;;;;5074534;28;20201;-83
2023/09/07 13:06:08;;;;;;;1.50;1.40;;;;;;;;;;5073834;28;20253;-83
2023/09/07 13:08:36;;;;;;;4.53;4.13;;;;;;;;;;5073249;28;20201;-84
2023/09/07 13:11:05;;;;;;;3.30;3.00;;;;;;;;;;5073904;28;20201;-84
2023/09/07 13:13:33;;;;;;;3.33;1.90;;;;;;;;;;5074155;28;20206;-84
2023/09/07 13:16:02;;;;;;;0.50;0.50;;;;;;;;;;5073524;28;20279;-84
2023/09/07 13:18:30;;;;;;;3.40;2.60;;;;;;;;;;5073583;28;20220;-84
2023/09/07 13:21:00;;;;;;;4.77;3.80;;;;;;;;;;5073298;28;20205;-84
2023/09/07 13:23:29;;;;;;;0.97;0.97;;;;;;;;;;5073638;28;20208;-85
2023/09/07 13:26:00;;;;;;;4.13;2.10;;;;;;;;;;5073193;28;20221;-84
2023/09/07 13:28:28;;;;;;;2.83;2.27;;;;;;;;;;5073112;28;20206;-84
2023/09/07 13:31:00;;;;;;;2.10;1.90;;;;;;;;;;5073613;28;20194;-84
2023/09/07 13:33:29;;;;;;;3.57;3.27;;;;;;;;;;5074098;28;20255;-84
2023/09/07 13:35:58;;;;;;;5.77;3.40;;;;;;;;;;5072629;28;20217;-84
2023/09/07 13:38:28;;;;;;;1.30;1.23;;;;;;;;;;5073500;28;20239;-83
2023/09/07 13:40:57;;;;;;;3.60;2.90;;;;;;;;;;5073695;28;20286;-84
2023/09/07 13:43:25;;;;;;;1.70;1.60;;;;;;;;;;5073304;28;20194;-83
2023/09/07 13:45:54;;;;;;;1.60;1.50;;;;;;;;;;5073444;28;20197;-83
2023/09/07 13:48:22;;;;;;;4.90;3.60;;;;;;;;;;5073171;28;20489;-82
2023/09/07 13:50:51;;;;;;;6.13;4.37;;;;;;;;;;5073314;28;20241;-83
2023/09/07 13:53:20;;;;;;;5.47;4.47;;;;;;;;;;5073173;28;20455;-82
2023/09/07 13:55:49;;;;;;;3.90;2.57;;;;;;;;;;5072897;28;20214;-83
2023/09/07 13:58:18;;;;;;;3.97;3.57;;;;;;;;;;5073386;28;20288;-82
2023/09/07 14:00:47;;;;;;;2.27;2.10;;;;;;;;;;5073007;28;20197;-83
2023/09/07 14:03:16;;;;;;;4.37;3.97;;;;;;;;;;5072095;28;20225;-83
2023/09/07 14:05:48;;;;;;;2.80;2.53;;;;;;;;;;5072836;28;20288;-83
2023/09/07 14:08:17;;;;;;;4.40;1.50;;;;;;;;;;5072884;28;20205;-83
2023/09/07 14:10:49;;;;;;;4.93;4.20;;;;;;;;;;5073378;28;20198;-83
2023/09/07 14:13:19;;;;;;;1.93;1.80;;;;;;;;;;5072982;28;20197;-83
2023/09/07 14:15:48;;;;;;;3.00;2.50;;;;;;;;;;5072431;28;20262;-83
2023/09/07 14:18:16;;;;;;;3.10;2.27;;;;;;;;;;5072924;28;20220;-82
2023/09/07 14:20:45;;;;;;;3.03;2.37;;;;;;;;;;5072933;28;20209;-82
2023/09/07 14:23:13;;;;;;;2.67;2.47;;;;;;;;;;5072978;28;20205;-84
2023/09/07 14:25:44;;;;;;;2.83;2.63;;;;;;;;;;5073556;28;20292;-85
2023/09/07 14:28:15;;;;;;;4.63;3.13;;;;;;;;;;5072698;28;20209;-84
2023/09/07 14:30:46;;;;;;;3.23;2.17;;;;;;;;;;5073080;28;20202;-84
2023/09/07 14:33:14;;;;;;;1.67;1.53;;;;;;;;;;5073429;28;20223;-84
2023/09/07 14:35:46;;;;;;;0.93;0.93;;;;;;;;;;5073006;28;20671;-84
2023/09/07 14:38:15;;;;;;;2.07;1.53;;;;;;;;;;5071921;28;20197;-84
2023/09/07 14:40:43;;;;;;;2.83;2.63;;;;;;;;;;5072108;28;20205;-84
2023/09/07 14:43:13;;;;;;;0.50;0.50;;;;;;;;;;5071927;28;20197;-84
2023/09/07 14:45:43;;;;;;;4.70;3.33;;;;;;;;;;5072427;28;20206;-84
2023/09/07 14:48:15;;;;;;;3.73;3.00;;;;;;;;;;5071415;28;20193;-84
2023/09/07 14:50:46;;;;;;;3.57;3.13;;;;;;;;;;5072281;28;20210;-84
2023/09/07 14:53:14;;;;;;;2.23;2.03;;;;;;;;;;5072233;28;20227;-84
2023/09/07 14:55:43;;;;;;;2.40;2.13;;;;;;;;;;5071866;28;20206;-82